Time;durP1;ratioP1;P1;durP2;ratioP2;P2;SDS_P1;SDS_P2;PMS_P1;PMS_P2;Temp;Humidity;BMP_temperature;BMP_pressure;BME280_temperature;BME280_humidity;BME280_pressure;Samples;Min_cycle;Max_cycle;Signal;HPM_P1;HPM_P2
2023/06/14 00:01:25;;;;;;;7.13;3.10;;;;;;;14.02;100.00;98247.16;5054350;28;20551;-74
2023/06/14 00:03:50;;;;;;;5.53;2.75;;;;;;;13.91;100.00;98237.16;5047669;28;20052;-73
2023/06/14 00:06:15;;;;;;;5.40;2.90;;;;;;;13.79;100.00;98230.88;5052100;28;20446;-73
2023/06/14 00:08:41;;;;;;;6.38;2.85;;;;;;;13.86;100.00;98244.34;5058050;28;20051;-74
2023/06/14 00:11:07;;;;;;;5.90;2.92;;;;;;;13.91;100.00;98260.78;5073529;28;20527;-73
2023/06/14 00:13:33;;;;;;;4.90;2.78;;;;;;;13.69;100.00;98244.25;5065081;28;20099;-74
2023/06/14 00:15:58;;;;;;;4.22;2.78;;;;;;;13.64;100.00;98244.13;5055952;28;20032;-74
2023/06/14 00:18:24;;;;;;;6.05;3.22;;;;;;;13.63;100.00;98256.91;5049901;28;20023;-74
2023/06/14 00:20:49;;;;;;;7.72;2.80;;;;;;;13.59;100.00;98242.13;5044286;28;20045;-73
2023/06/14 00:23:15;;;;;;;6.82;3.10;;;;;;;13.63;100.00;98262.34;5053362;28;20599;-73
2023/06/14 00:25:40;;;;;;;10.40;3.10;;;;;;;13.49;100.00;98245.44;5055110;28;20111;-73
2023/06/14 00:28:05;;;;;;;3.60;2.80;;;;;;;13.47;100.00;98250.28;5064263;28;20521;-73
2023/06/14 00:30:30;;;;;;;4.82;3.15;;;;;;;13.22;100.00;98233.34;5048711;28;20029;-73
2023/06/14 00:32:56;;;;;;;4.40;3.08;;;;;;;13.10;100.00;98249.63;5047224;28;20033;-74
2023/06/14 00:35:22;;;;;;;4.43;2.90;;;;;;;12.95;100.00;98241.91;5035233;28;20494;-73
2023/06/14 00:37:47;;;;;;;7.10;3.03;;;;;;;12.98;100.00;98240.63;5045753;28;20037;-74
2023/06/14 00:40:12;;;;;;;5.70;2.90;;;;;;;12.96;100.00;98256.31;5061488;28;20021;-73
2023/06/14 00:42:38;;;;;;;6.72;3.40;;;;;;;12.84;100.00;98254.41;5065062;28;20135;-74
2023/06/14 00:45:04;;;;;;;7.65;3.17;;;;;;;12.73;100.00;98236.16;5038923;28;20017;-74
2023/06/14 00:47:29;;;;;;;5.97;3.08;;;;;;;12.68;100.00;98217.03;5044622;28;20029;-73
2023/06/14 00:49:55;;;;;;;8.05;3.25;;;;;;;12.77;100.00;98231.94;5050172;28;20107;-73
2023/06/14 00:52:24;;;;;;;4.53;2.95;;;;;;;12.71;100.00;98241.00;5062511;28;20055;-74
2023/06/14 00:54:49;;;;;;;5.47;3.60;;;;;;;12.71;100.00;98260.84;5052639;28;20043;-73
2023/06/14 00:57:14;;;;;;;5.03;3.17;;;;;;;12.56;100.00;98246.03;5070114;28;20059;-75
2023/06/14 00:59:46;;;;;;;6.75;3.85;;;;;;;12.48;100.00;98245.28;5048559;28;20044;-73
2023/06/14 01:02:11;;;;;;;5.90;3.47;;;;;;;12.46;100.00;98258.25;5043503;28;20090;-74
2023/06/14 01:04:38;;;;;;;7.40;3.50;;;;;;;12.44;100.00;98252.25;5065981;28;20036;-73
2023/06/14 01:07:24;;;;;;;7.60;3.30;;;;;;;12.31;100.00;98230.69;5070980;28;20485;-74
2023/06/14 01:10:18;;;;;;;7.93;3.20;;;;;;;12.40;100.00;98259.16;5049243;28;20117;-73
2023/06/14 01:13:02;;;;;;;6.53;3.10;;;;;;;12.40;100.00;98264.59;5054991;28;20029;-74
2023/06/14 01:15:31;;;;;;;5.13;2.97;;;;;;;12.34;100.00;98251.94;5068416;28;20047;-74
2023/06/14 01:18:02;;;;;;;5.28;3.15;;;;;;;12.29;100.00;98251.81;5066028;28;20078;-73
2023/06/14 01:20:32;;;;;;;5.05;3.20;;;;;;;12.28;100.00;98260.97;5038167;28;20040;-74
2023/06/14 01:22:58;;;;;;;5.50;3.20;;;;;;;12.26;100.00;98263.09;5055785;28;20521;-73
2023/06/14 01:25:25;;;;;;;4.90;3.38;;;;;;;12.15;100.00;98250.28;5051804;28;20438;-73
2023/06/14 01:27:53;;;;;;;5.40;3.10;;;;;;;12.16;100.00;98260.09;5050042;28;20032;-74
2023/06/14 01:30:21;;;;;;;6.57;3.35;;;;;;;12.12;100.00;98277.88;5052475;28;20025;-74
2023/06/14 01:32:47;;;;;;;6.40;4.05;;;;;;;11.99;100.00;98257.97;5053013;28;20033;-74
2023/06/14 01:35:13;;;;;;;6.65;4.10;;;;;;;11.91;100.00;98263.72;5050288;28;20367;-74
2023/06/14 01:37:40;;;;;;;6.88;3.75;;;;;;;11.86;100.00;98260.84;5064117;28;20040;-74
2023/06/14 01:40:08;;;;;;;5.50;3.47;;;;;;;11.97;100.00;98278.25;5059955;28;20016;-74
2023/06/14 01:42:38;;;;;;;6.28;3.70;;;;;;;12.04;100.00;98271.69;5018124;28;20029;-74
2023/06/14 01:45:05;;;;;;;8.77;3.60;;;;;;;11.89;100.00;98262.28;5052220;28;20029;-73
2023/06/14 01:47:32;;;;;;;7.43;3.58;;;;;;;11.80;100.00;98264.44;5054572;28;20032;-74
2023/06/14 01:49:57;;;;;;;4.82;3.33;;;;;;;11.71;100.00;98271.19;5063014;28;20086;-73
2023/06/14 01:52:24;;;;;;;6.72;3.33;;;;;;;11.84;100.00;98255.63;5068289;28;20032;-74
2023/06/14 01:54:50;;;;;;;4.57;3.25;;;;;;;11.82;100.00;98259.63;5051482;28;20111;-74
2023/06/14 01:57:15;;;;;;;4.10;3.05;;;;;;;12.04;100.00;98279.00;5067250;28;20101;-74
2023/06/14 01:59:40;;;;;;;9.50;3.72;;;;;;;11.87;100.00;98261.66;5061973;28;20077;-74
2023/06/14 02:02:05;;;;;;;5.90;3.47;;;;;;;11.84;100.00;98263.75;5067481;28;20070;-74
2023/06/14 02:04:31;;;;;;;6.82;2.92;;;;;;;11.70;100.00;98262.22;5042536;28;20116;-74
2023/06/14 02:06:56;;;;;;;5.75;3.35;;;;;;;11.65;100.00;98266.66;5064356;28;20462;-73
2023/06/14 02:09:21;;;;;;;6.28;3.38;;;;;;;11.48;100.00;98261.81;5068411;28;20549;-74
2023/06/14 02:11:47;;;;;;;6.10;3.63;;;;;;;11.39;100.00;98263.97;5058601;28;20045;-74
2023/06/14 02:14:12;;;;;;;10.68;3.35;;;;;;;11.40;100.00;98264.81;5048145;28;20020;-74
2023/06/14 02:16:38;;;;;;;7.93;3.20;;;;;;;11.40;100.00;98262.94;5049496;28;20052;-73
2023/06/14 02:19:04;;;;;;;4.63;3.15;;;;;;;11.45;100.00;98273.09;5040315;28;20418;-73
2023/06/14 02:21:29;;;;;;;5.63;3.28;;;;;;;11.43;100.00;98269.78;5053098;28;20024;-73
2023/06/14 02:23:55;;;;;;;5.13;3.30;;;;;;;11.30;100.00;98262.59;5053255;28;20071;-73
2023/06/14 02:26:20;;;;;;;6.90;3.70;;;;;;;11.26;100.00;98274.91;5071680;28;20063;-74
2023/06/14 02:28:45;;;;;;;10.18;3.80;;;;;;;11.22;100.00;98272.88;5070651;28;20474;-73
2023/06/14 02:31:10;;;;;;;4.30;2.80;;;;;;;11.14;100.00;98272.09;5050917;28;20573;-73
2023/06/14 02:33:36;;;;;;;5.55;2.85;;;;;;;11.09;100.00;98271.94;5073222;28;20033;-74
2023/06/14 02:36:02;;;;;;;4.60;3.40;;;;;;;11.10;100.00;98292.53;5066423;28;20108;-73
2023/06/14 02:38:28;;;;;;;6.05;2.67;;;;;;;11.01;100.00;98288.44;5057113;28;20478;-74
2023/06/14 02:40:53;;;;;;;5.35;2.90;;;;;;;10.85;100.00;98278.16;5050342;28;20017;-73
2023/06/14 02:43:19;;;;;;;7.22;3.38;;;;;;;10.80;100.00;98280.69;5067225;28;20151;-74
2023/06/14 02:45:45;;;;;;;7.93;3.33;;;;;;;10.78;100.00;98283.59;5052238;28;20326;-74
2023/06/14 02:48:11;;;;;;;8.10;3.38;;;;;;;10.70;100.00;98271.16;5060286;28;20031;-73
2023/06/14 02:50:36;;;;;;;8.40;3.28;;;;;;;10.80;100.00;98280.69;5052683;28;20043;-74
2023/06/14 02:53:02;;;;;;;4.75;2.90;;;;;;;10.82;100.00;98273.16;5061070;28;20061;-73
2023/06/14 02:55:28;;;;;;;6.40;3.45;;;;;;;10.91;100.00;98279.97;5073489;28;20024;-73
2023/06/14 02:57:53;;;;;;;5.53;3.10;;;;;;;10.80;100.00;98275.25;5055672;28;20032;-73
2023/06/14 03:00:19;;;;;;;5.60;3.38;;;;;;;10.91;100.00;98264.56;5048140;28;20016;-74
2023/06/14 03:02:45;;;;;;;4.50;3.22;;;;;;;10.90;100.00;98291.84;5074871;28;20028;-74
2023/06/14 03:05:10;;;;;;;4.57;3.05;;;;;;;10.80;100.00;98270.69;5060028;28;20024;-73
2023/06/14 03:07:40;;;;;;;6.88;3.63;;;;;;;10.73;100.00;98276.13;5037400;28;20393;-73
2023/06/14 03:10:08;;;;;;;5.95;3.38;;;;;;;10.73;100.00;98273.41;5046674;28;20099;-73
2023/06/14 03:12:33;;;;;;;9.32;3.95;;;;;;;10.67;100.00;98278.88;5051683;28;20425;-74
2023/06/14 03:15:02;;;;;;;7.75;4.03;;;;;;;10.74;100.00;98294.03;5069863;28;20031;-74
2023/06/14 03:17:29;;;;;;;5.15;3.60;;;;;;;10.87;100.00;98284.16;5049847;28;20028;-74
2023/06/14 03:19:55;;;;;;;5.75;3.60;;;;;;;10.77;100.00;98281.94;5047112;28;20035;-74
2023/06/14 03:22:21;;;;;;;7.47;3.88;;;;;;;10.84;100.00;98284.59;5037118;28;20025;-74
2023/06/14 03:24:47;;;;;;;7.20;3.83;;;;;;;10.89;100.00;98285.59;5049051;28;20017;-74
2023/06/14 03:27:12;;;;;;;7.55;4.00;;;;;;;10.72;100.00;98269.06;5059724;28;21630;-77
2023/06/14 03:29:37;;;;;;;7.47;3.60;;;;;;;10.56;100.00;98247.94;5054208;28;20066;-75
2023/06/14 03:32:03;;;;;;;10.52;3.95;;;;;;;10.87;100.00;98305.81;5049927;28;20042;-76
2023/06/14 03:34:29;;;;;;;7.72;4.22;;;;;;;10.85;100.00;98289.81;5053241;28;20113;-75
2023/06/14 03:36:54;;;;;;;10.63;4.30;;;;;;;10.97;100.00;98298.03;5061467;28;20035;-76
2023/06/14 03:39:19;;;;;;;4.38;3.55;;;;;;;10.92;100.00;98297.84;5062380;28;20029;-75
2023/06/14 03:41:45;;;;;;;6.10;3.78;;;;;;;11.06;100.00;98307.56;5068741;28;20016;-77
2023/06/14 03:44:15;;;;;;;8.93;3.83;;;;;;;10.84;100.00;98276.47;5055990;28;20071;-76
2023/06/14 03:46:40;;;;;;;6.28;3.97;;;;;;;10.87;100.00;98295.84;5072315;28;20086;-75
2023/06/14 03:49:06;;;;;;;5.82;3.83;;;;;;;10.85;100.00;98280.84;5067551;28;20060;-75
2023/06/14 03:51:31;;;;;;;6.35;3.47;;;;;;;11.08;100.00;98310.03;5051491;28;20074;-75
2023/06/14 03:53:56;;;;;;;6.38;4.28;;;;;;;11.04;100.00;98322.38;5064112;28;20445;-62
2023/06/14 03:56:22;;;;;;;5.20;3.95;;;;;;;11.12;100.00;98316.69;5065919;28;20115;-66
2023/06/14 03:58:47;;;;;;;6.78;3.63;;;;;;;11.14;100.00;98320.84;5067585;28;20028;-67
2023/06/14 04:01:13;;;;;;;7.32;4.00;;;;;;;11.13;100.00;98318.34;5045251;28;20031;-69
2023/06/14 04:03:40;;;;;;;6.75;3.60;;;;;;;11.15;100.00;98321.66;5065040;28;20039;-71
2023/06/14 04:06:06;;;;;;;6.65;3.88;;;;;;;11.12;100.00;98322.94;5066811;28;20036;-71
2023/06/14 04:08:31;;;;;;;5.63;3.83;;;;;;;11.17;100.00;98322.28;5042120;28;20401;-67
2023/06/14 04:10:57;;;;;;;8.95;3.50;;;;;;;11.17;100.00;98330.41;5073801;28;20025;-70
2023/06/14 04:13:22;;;;;;;9.20;4.50;;;;;;;11.26;100.00;98347.19;5069168;28;20031;-73
2023/06/14 04:15:47;;;;;;;11.15;4.43;;;;;;;11.27;100.00;98332.63;5071142;28;20111;-77
2023/06/14 04:18:13;;;;;;;10.88;4.20;;;;;;;11.44;100.00;98335.63;5054828;28;20020;-76
2023/06/14 04:20:39;;;;;;;7.78;4.35;;;;;;;11.49;100.00;98330.38;5055188;28;20402;-80
2023/06/14 04:23:17;;;;;;;9.60;4.70;;;;;;;11.55;100.00;98341.16;5057612;28;20532;-77
2023/06/14 04:25:45;;;;;;;7.30;4.22;;;;;;;11.56;100.00;98352.81;5073230;28;20070;-77
2023/06/14 04:28:11;;;;;;;12.27;3.80;;;;;;;11.51;100.00;98328.28;5046246;28;20402;-78
2023/06/14 04:30:38;;;;;;;6.53;4.20;;;;;;;11.51;100.00;98322.84;5052839;28;20528;-79
2023/06/14 04:33:05;;;;;;;6.30;3.90;;;;;;;11.54;100.00;98309.69;5050707;28;20044;-78
2023/06/14 04:35:32;;;;;;;8.57;4.85;;;;;;;11.84;100.00;98344.22;5051406;28;20112;-79
2023/06/14 04:37:57;;;;;;;7.50;4.53;;;;;;;12.01;100.00;98349.94;5050415;28;20028;-78
2023/06/14 04:40:22;;;;;;;5.45;4.22;;;;;;;12.08;100.00;98337.16;5055479;28;20081;-77
2023/06/14 04:42:48;;;;;;;9.13;4.55;;;;;;;11.99;100.00;98333.91;5049272;28;20025;-77
2023/06/14 04:45:15;;;;;;;15.55;6.55;;;;;;;12.15;100.00;98337.06;5050654;28;20078;-77
2023/06/14 04:47:41;;;;;;;13.85;6.20;;;;;;;12.25;100.00;98364.50;5053133;28;20557;-79
2023/06/14 04:50:07;;;;;;;15.48;5.55;;;;;;;12.22;100.00;98349.50;5063895;28;20047;-77
2023/06/14 04:52:35;;;;;;;8.48;5.03;;;;;;;12.25;100.00;98364.50;5055360;28;20481;-74
2023/06/14 04:55:01;;;;;;;11.38;5.15;;;;;;;12.42;100.00;98378.31;5065904;28;20032;-79
2023/06/14 04:57:27;;;;;;;11.27;5.30;;;;;;;12.48;100.00;98380.94;5056003;28;20024;-80
2023/06/14 04:59:54;;;;;;;9.20;4.60;;;;;;;12.58;100.00;98360.59;5054111;28;20017;-80
2023/06/14 05:02:21;;;;;;;8.75;4.55;;;;;;;12.60;100.00;98355.75;5060595;28;20016;-81
2023/06/14 05:04:47;;;;;;;7.78;3.85;;;;;;;12.95;100.00;98372.25;5044367;28;20036;-75
2023/06/14 05:07:14;;;;;;;9.40;4.25;;;;;;;13.34;100.00;98389.09;5056833;28;20070;-75
2023/06/14 05:09:39;;;;;;;6.05;3.75;;;;;;;13.47;100.00;98388.88;5067972;28;20033;-74
2023/06/14 05:12:07;;;;;;;11.00;4.28;;;;;;;13.44;100.00;98377.63;5053931;28;20029;-75
2023/06/14 05:14:34;;;;;;;7.43;5.13;;;;;;;13.45;100.00;98369.25;5067035;28;20028;-75
2023/06/14 05:16:59;;;;;;;10.68;4.10;;;;;;;13.54;100.00;98373.28;5064384;28;20621;-76
2023/06/14 05:19:24;;;;;;;6.80;3.90;;;;;;;13.67;100.00;98355.09;5055388;28;20082;-78
2023/06/14 05:21:50;;;;;;;6.25;4.00;;;;;;;13.87;100.00;98365.66;5048822;28;20116;-76
2023/06/14 05:24:17;;;;;;;8.77;3.92;;;;;;;14.22;100.00;98388.25;5046398;28;20036;-77
2023/06/14 05:26:43;;;;;;;7.50;3.78;;;;;;;14.53;100.00;98391.69;5046812;28;20038;-76
2023/06/14 05:29:08;;;;;;;7.88;4.25;;;;;;;14.67;100.00;98367.75;5070042;28;20087;-80
2023/06/14 05:31:33;;;;;;;9.73;4.13;;;;;;;14.81;100.00;98371.03;5050842;28;20021;-77
2023/06/14 05:33:59;;;;;;;7.70;3.70;;;;;;;15.06;100.00;98382.44;5058196;28;20043;-77
2023/06/14 05:36:25;;;;;;;8.18;4.00;;;;;;;14.95;100.00;98350.59;5057576;28;20128;-79
2023/06/14 05:38:51;;;;;;;7.70;3.95;;;;;;;15.14;100.00;98386.66;5050923;28;20033;-77
2023/06/14 05:41:16;;;;;;;8.43;3.72;;;;;;;15.46;100.00;98392.44;5042292;28;20032;-73
2023/06/14 05:43:41;;;;;;;9.15;4.50;;;;;;;15.83;100.00;98394.75;5065375;28;20021;-72
2023/06/14 05:46:07;;;;;;;13.77;5.10;;;;;;;15.97;100.00;98390.59;5065684;28;21393;-76
2023/06/14 05:48:32;;;;;;;8.55;4.38;;;;;;;16.14;100.00;98395.25;5061155;28;20060;-77
2023/06/14 05:50:59;;;;;;;12.82;4.75;;;;;;;16.33;100.00;98401.25;5056424;28;20032;-75
2023/06/14 05:53:24;;;;;;;11.05;4.57;;;;;;;16.60;100.00;98394.00;5045388;28;20025;-76
2023/06/14 05:55:53;;;;;;;7.82;4.40;;;;;;;16.42;100.00;98389.63;5064718;28;20518;-74
2023/06/14 05:58:18;;;;;;;6.53;4.28;;;;;;;16.78;100.00;98387.44;5061110;28;20028;-74
2023/06/14 06:00:43;;;;;;;11.98;3.65;;;;;;;17.16;100.00;98382.13;5043098;28;20108;-72
2023/06/14 06:03:09;;;;;;;6.10;3.55;;;;;;;17.52;100.00;98391.53;5047887;28;20020;-72
2023/06/14 06:05:34;;;;;;;10.10;3.78;;;;;;;17.43;100.00;98380.25;5066299;28;20471;-72
2023/06/14 06:08:00;;;;;;;5.63;3.33;;;;;;;17.93;100.00;98378.25;5064322;28;20056;-72
2023/06/14 06:10:25;;;;;;;8.98;3.60;;;;;;;18.24;100.00;98381.22;5057019;28;20036;-72
2023/06/14 06:12:52;;;;;;;10.63;3.45;;;;;;;18.48;100.00;98379.72;5064520;28;20032;-72
2023/06/14 06:15:18;;;;;;;5.28;3.42;;;;;;;18.72;100.00;98385.59;5052178;28;20475;-72
2023/06/14 06:17:43;;;;;;;5.80;3.75;;;;;;;19.02;100.00;98389.59;5057585;28;20147;-78
2023/06/14 06:20:09;;;;;;;6.53;3.72;;;;;;;19.04;100.00;98358.06;5048672;28;20107;-77
2023/06/14 06:22:35;;;;;;;9.07;3.63;;;;;;;19.18;100.00;98377.59;5045887;28;20190;-75
2023/06/14 06:25:00;;;;;;;4.75;3.47;;;;;;;19.47;100.00;98393.59;5053621;28;20020;-73
2023/06/14 06:27:25;;;;;;;7.00;4.05;;;;;;;19.52;100.00;98400.97;5063980;28;20029;-73
2023/06/14 06:29:51;;;;;;;9.05;3.67;;;;;;;19.56;100.00;98404.84;5048586;28;20036;-77
2023/06/14 06:32:17;;;;;;;4.90;3.35;;;;;;;19.92;100.00;98403.00;5044719;28;20036;-74
2023/06/14 06:34:42;;;;;;;5.15;3.70;;;;;;;20.35;100.00;98396.06;5061814;28;20124;-76
2023/06/14 06:37:07;;;;;;;7.18;3.17;;;;;;;20.74;100.00;98387.22;5065275;28;20024;-76
2023/06/14 06:39:33;;;;;;;7.38;3.20;;;;;;;21.07;100.00;98390.41;5038343;28;20104;-76
2023/06/14 06:41:58;;;;;;;8.35;3.60;;;;;;;21.37;92.91;98397.66;5050754;28;20055;-77
2023/06/14 06:44:23;;;;;;;6.65;3.50;;;;;;;21.10;92.75;98394.53;5072064;28;20031;-76
2023/06/14 06:46:49;;;;;;;5.75;3.60;;;;;;;21.48;91.77;98408.66;5049289;28;20063;-76
2023/06/14 06:49:14;;;;;;;7.65;3.30;;;;;;;22.09;88.93;98408.22;5054273;28;20029;-78
2023/06/14 06:51:44;;;;;;;7.57;3.60;;;;;;;22.27;80.81;98415.00;5047486;28;20024;-79
2023/06/14 06:54:10;;;;;;;6.07;3.50;;;;;;;24.15;72.31;98408.19;5054195;28;20043;-78
2023/06/14 06:56:36;;;;;;;6.57;4.07;;;;;;;26.54;60.31;98406.22;5048348;28;20602;-78
2023/06/14 06:59:01;;;;;;;6.80;3.60;;;;;;;27.89;54.92;98377.81;5052320;28;20055;-78
2023/06/14 07:01:28;;;;;;;7.68;4.15;;;;;;;29.77;49.32;98399.25;5068262;28;20024;-74
2023/06/14 07:03:54;;;;;;;4.90;3.22;;;;;;;30.83;45.75;98422.22;5046933;28;20031;-77
2023/06/14 07:06:20;;;;;;;7.15;2.97;;;;;;;31.49;42.90;98412.81;5049926;28;20025;-79
2023/06/14 07:08:46;;;;;;;5.82;3.30;;;;;;;31.75;42.53;98406.81;5049861;28;20021;-76
2023/06/14 07:11:11;;;;;;;6.45;3.00;;;;;;;33.42;41.57;98412.56;5043936;28;20025;-77
2023/06/14 07:13:37;;;;;;;4.97;2.70;;;;;;;35.28;38.11;98415.50;5045016;28;20086;-78
2023/06/14 07:16:04;;;;;;;10.30;3.40;;;;;;;35.53;36.86;98430.75;5050817;28;20031;-77
2023/06/14 07:18:30;;;;;;;5.72;2.88;;;;;;;35.58;35.00;98415.59;5069379;28;20024;-75
2023/06/14 07:20:56;;;;;;;6.25;3.28;;;;;;;34.24;35.35;98431.25;5049105;28;20126;-72
2023/06/14 07:23:22;;;;;;;3.40;2.78;;;;;;;32.99;37.00;98428.31;5046771;28;20029;-76
2023/06/14 07:25:48;;;;;;;5.47;3.30;;;;;;;35.44;36.14;98426.59;5061608;28;20029;-79
2023/06/14 07:28:13;;;;;;;4.97;2.83;;;;;;;36.99;34.62;98427.34;5064545;28;20051;-75
2023/06/14 07:30:38;;;;;;;8.05;2.65;;;;;;;37.92;33.07;98425.22;5065044;28;20032;-75
2023/06/14 07:33:04;;;;;;;4.88;2.75;;;;;;;37.09;32.60;98423.03;5041860;28;20028;-74
2023/06/14 07:35:29;;;;;;;4.82;2.53;;;;;;;39.17;32.21;98427.63;5064563;28;20093;-73
2023/06/14 07:37:54;;;;;;;3.15;2.50;;;;;;;39.03;30.45;98424.81;5062737;28;20036;-75
2023/06/14 07:40:20;;;;;;;6.10;3.23;;;;;;;38.65;31.20;98435.66;5054429;28;20021;-79
2023/06/14 07:42:46;;;;;;;3.08;2.78;;;;;;;39.54;30.45;98421.56;5061443;28;20327;-80
2023/06/14 07:45:14;;;;;;;4.50;2.63;;;;;;;39.82;29.91;98432.03;5050281;28;20027;-81
2023/06/14 07:47:39;;;;;;;4.22;2.80;;;;;;;40.44;28.87;98432.63;5058598;28;20769;-80
2023/06/14 07:50:05;;;;;;;6.65;2.63;;;;;;;40.82;29.13;98430.81;5039394;28;20102;-81
2023/06/14 07:52:30;;;;;;;4.82;2.00;;;;;;;41.68;28.44;98406.56;5058121;28;20154;-81
2023/06/14 07:54:56;;;;;;;3.03;2.33;;;;;;;41.29;28.57;98430.44;5059046;28;20334;-81
2023/06/14 07:57:22;;;;;;;3.95;2.47;;;;;;;41.63;27.96;98418.38;5049888;28;20032;-75
2023/06/14 07:59:47;;;;;;;5.18;2.55;;;;;;;42.71;26.63;98421.53;5074220;28;20032;-78
2023/06/14 08:02:12;;;;;;;5.55;2.60;;;;;;;42.82;27.01;98412.88;5052748;28;20053;-78
2023/06/14 08:04:38;;;;;;;3.03;2.40;;;;;;;42.34;26.64;98426.13;5053862;28;20040;-79
2023/06/14 08:07:04;;;;;;;5.10;2.53;;;;;;;42.53;26.20;98435.22;5047241;28;20028;-77
2023/06/14 08:09:29;;;;;;;7.03;2.70;;;;;;;42.82;26.66;98432.78;5068641;28;20028;-73
2023/06/14 08:11:55;;;;;;;6.50;2.95;;;;;;;42.41;26.83;98430.91;5045827;28;20025;-79
2023/06/14 08:14:21;;;;;;;4.70;2.67;;;;;;;42.70;26.29;98414.22;5077545;28;20097;-77
2023/06/14 08:16:46;;;;;;;4.53;2.40;;;;;;;43.54;25.67;98409.63;5056215;28;20027;-77
2023/06/14 08:19:11;;;;;;;4.70;2.40;;;;;;;42.04;26.10;98435.41;5054341;28;20506;-74
2023/06/14 08:21:37;;;;;;;6.78;2.72;;;;;;;42.81;25.71;98440.50;5063666;28;20096;-75
2023/06/14 08:24:03;;;;;;;3.97;2.55;;;;;;;42.56;25.68;98425.84;5062825;28;20040;-75
2023/06/14 08:26:29;;;;;;;5.05;2.53;;;;;;;41.05;26.90;98427.38;5071206;28;20096;-78
2023/06/14 08:28:55;;;;;;;4.95;2.58;;;;;;;41.09;26.83;98433.06;5039590;28;20615;-73
2023/06/14 08:31:21;;;;;;;5.78;2.28;;;;;;;41.77;25.88;98421.09;5052152;28;20040;-73
2023/06/14 08:33:46;;;;;;;5.35;2.38;;;;;;;41.32;26.71;98429.59;5069529;28;20119;-73
2023/06/14 08:36:12;;;;;;;5.25;2.20;;;;;;;41.92;26.22;98422.56;5046543;28;20493;-73
2023/06/14 08:38:38;;;;;;;4.10;2.25;;;;;;;42.36;25.90;98429.34;5063633;28;20062;-73
2023/06/14 08:41:05;;;;;;;6.95;2.30;;;;;;;41.75;26.32;98429.22;5044547;28;20048;-73
2023/06/14 08:43:31;;;;;;;4.43;1.98;;;;;;;41.94;25.49;98431.47;5047665;28;20078;-74
2023/06/14 08:46:02;;;;;;;2.95;1.95;;;;;;;41.49;25.87;98437.16;5067926;28;20603;-73
2023/06/14 08:48:28;;;;;;;7.65;2.97;;;;;;;42.30;26.06;98419.66;5040955;28;20048;-71
2023/06/14 08:51:01;;;;;;;10.27;2.72;;;;;;;41.00;26.36;98439.16;5064971;28;20390;-72
2023/06/14 08:53:28;;;;;;;12.25;2.60;;;;;;;41.52;26.78;98432.69;5043670;28;20487;-76
2023/06/14 08:55:55;;;;;;;5.22;2.28;;;;;;;41.98;25.99;98431.44;5072457;28;20102;-78
2023/06/14 08:58:24;;;;;;;7.43;2.03;;;;;;;41.86;25.93;98434.78;5074676;28;20056;-76
2023/06/14 09:00:50;;;;;;;5.50;2.30;;;;;;;43.31;25.09;98431.19;5052716;28;20020;-72
2023/06/14 09:03:15;;;;;;;3.78;2.20;;;;;;;42.91;25.20;98430.19;5063605;28;20090;-75
2023/06/14 09:05:41;;;;;;;4.53;2.45;;;;;;;43.92;24.83;98440.69;5042554;28;20509;-76
2023/06/14 09:08:06;;;;;;;4.25;2.70;;;;;;;43.63;24.46;98426.19;5052957;28;20024;-77
2023/06/14 09:10:37;;;;;;;4.05;2.28;;;;;;;42.37;25.39;98438.66;5062186;28;20111;-74
2023/06/14 09:13:03;;;;;;;2.83;2.20;;;;;;;42.17;24.95;98435.66;5048028;28;20021;-73
2023/06/14 09:15:29;;;;;;;6.90;2.10;;;;;;;41.82;25.22;98449.84;5065252;28;20119;-73
2023/06/14 09:17:55;;;;;;;8.77;2.72;;;;;;;42.34;25.55;98439.50;5060428;28;20029;-73
2023/06/14 09:20:20;;;;;;;11.98;2.20;;;;;;;43.05;24.67;98446.22;5062231;28;20013;-73
2023/06/14 09:22:46;;;;;;;6.10;1.95;;;;;;;43.62;24.20;98428.22;5070127;28;20470;-73
2023/06/14 09:25:15;;;;;;;4.32;2.20;;;;;;;43.12;24.37;98446.13;5062407;28;20025;-73
2023/06/14 09:27:42;;;;;;;7.30;2.47;;;;;;;42.04;23.94;98447.56;5048679;28;20033;-82
2023/06/14 09:30:09;;;;;;;5.60;2.20;;;;;;;42.91;23.00;98424.50;5064864;28;20109;-74
2023/06/14 09:32:42;;;;;;;3.90;3.03;;;;;;;41.71;23.63;98439.81;5045427;28;20498;-74
2023/06/14 09:35:08;;;;;;;7.45;2.30;;;;;;;41.36;24.00;98430.41;5048663;28;20028;-73
2023/06/14 09:37:34;;;;;;;3.72;1.80;;;;;;;43.16;22.83;98444.03;5051714;28;20043;-73
2023/06/14 09:40:00;;;;;;;5.88;1.92;;;;;;;42.94;22.62;98445.59;5065683;28;20123;-73
2023/06/14 09:42:28;;;;;;;3.95;2.00;;;;;;;41.98;22.87;98432.22;5047838;28;20024;-73
2023/06/14 09:44:54;;;;;;;;;;;;;;;41.89;22.00;98453.81;5048910;28;20033;-72
2023/06/14 09:47:20;;;;;;;5.88;1.88;;;;;;;42.55;21.42;98438.44;5048168;28;19912;-72
2023/06/14 09:49:46;;;;;;;3.80;1.90;;;;;;;42.57;20.41;98450.19;5069971;28;20024;-72
2023/06/14 09:52:15;;;;;;;8.55;1.95;;;;;;;42.73;20.78;98444.66;5043955;28;20157;-72
2023/06/14 09:54:52;;;;;;;5.05;1.80;;;;;;;42.35;21.25;98447.63;5068068;28;20039;-72
2023/06/14 09:57:21;;;;;;;4.17;2.00;;;;;;;43.02;19.89;98452.78;5057830;28;20054;-72
2023/06/14 09:59:48;;;;;;;4.25;1.80;;;;;;;42.42;21.74;98450.41;5048641;28;20818;-72
2023/06/14 10:02:28;;;;;;;4.78;1.63;;;;;;;42.37;21.47;98447.19;5060818;28;20028;-72
2023/06/14 10:05:15;;;;;;;3.10;1.67;;;;;;;42.50;20.99;98444.59;5043821;28;20028;-71
2023/06/14 10:08:03;;;;;;;4.05;1.90;;;;;;;43.36;20.67;98444.13;5053287;28;20035;-72
2023/06/14 10:10:29;;;;;;;3.38;1.60;;;;;;;43.83;20.41;98431.91;5060521;28;20044;-71
2023/06/14 10:12:54;;;;;;;4.80;1.70;;;;;;;42.61;19.85;98445.25;5062927;28;20028;-72
2023/06/14 10:15:32;;;;;;;2.78;1.67;;;;;;;41.91;20.25;98446.50;5045763;28;20032;-72
2023/06/14 10:18:31;;;;;;;3.50;2.00;;;;;;;41.18;21.43;98456.09;5062711;28;20497;-71
2023/06/14 10:21:18;;;;;;;5.90;1.60;;;;;;;43.17;20.35;98439.16;5062215;28;20035;-72
2023/06/14 10:23:46;;;;;;;3.80;1.98;;;;;;;43.47;20.52;98438.22;5069507;28;20035;-72
2023/06/14 10:26:21;;;;;;;6.75;1.88;;;;;;;41.63;21.68;98444.75;5060686;28;20215;-72
2023/06/14 10:29:16;;;;;;;2.50;1.88;;;;;;;41.95;22.28;98441.63;5063183;28;20052;-72
2023/06/14 10:31:47;;;;;;;7.22;2.33;;;;;;;44.13;21.16;98428.88;5060128;28;20033;-72
2023/06/14 10:34:23;;;;;;;3.97;1.80;;;;;;;44.99;21.08;98435.53;5066152;28;20513;-72
2023/06/14 10:37:01;;;;;;;2.30;1.80;;;;;;;43.61;21.63;98442.91;5057355;28;20159;-71
2023/06/14 10:39:27;;;;;;;4.85;1.92;;;;;;;44.76;21.03;98432.81;5067544;28;20433;-71
2023/06/14 10:41:54;;;;;;;6.07;1.75;;;;;;;43.65;21.09;98429.38;5067906;28;20025;-70
2023/06/14 10:44:19;;;;;;;4.45;1.88;;;;;;;44.46;20.96;98426.13;5059212;28;20033;-71
2023/06/14 10:46:55;;;;;;;4.43;1.80;;;;;;;42.84;20.92;98431.13;5060156;28;20081;-71
2023/06/14 10:49:41;;;;;;;3.35;1.90;;;;;;;43.87;20.64;98426.94;5064442;28;20024;-70
2023/06/14 10:52:21;;;;;;;5.90;1.77;;;;;;;44.14;20.99;98421.91;5058587;28;20029;-72
2023/06/14 10:55:10;;;;;;;2.92;1.90;;;;;;;45.36;20.55;98429.75;5066023;28;20110;-72
2023/06/14 10:57:38;;;;;;;2.42;1.50;;;;;;;42.93;21.20;98419.19;5058809;28;20024;-72
2023/06/14 11:00:12;;;;;;;3.55;2.10;;;;;;;40.72;23.19;98414.69;5068381;28;20025;-72
2023/06/14 11:03:15;;;;;;;2.90;1.80;;;;;;;40.92;22.96;98423.44;5065374;28;20063;-71
2023/06/14 11:06:00;;;;;;;2.67;1.90;;;;;;;40.37;22.57;98429.81;5062426;28;20466;-72
2023/06/14 11:08:25;;;;;;;3.90;2.03;;;;;;;42.61;22.21;98433.88;5050687;28;20490;-73
2023/06/14 11:10:54;;;;;;;2.90;1.83;;;;;;;44.57;21.30;98420.19;5036650;28;20040;-73
2023/06/14 11:13:19;;;;;;;4.15;1.80;;;;;;;45.82;20.19;98422.78;5044410;28;20020;-74
2023/06/14 11:15:52;;;;;;;1.60;1.40;;;;;;;46.59;19.62;98419.34;5066296;28;20969;-75
2023/06/14 11:18:18;;;;;;;4.93;1.70;;;;;;;45.97;20.56;98431.00;5066387;28;20278;-71
2023/06/14 11:20:46;;;;;;;4.68;1.90;;;;;;;46.53;19.60;98421.97;5071270;28;20032;-72
2023/06/14 11:23:11;;;;;;;3.55;1.73;;;;;;;41.24;22.31;98433.75;5062193;28;20070;-72
2023/06/14 11:25:37;;;;;;;4.72;1.90;;;;;;;39.05;23.76;98420.34;5066674;28;20036;-71
2023/06/14 11:28:02;;;;;;;6.10;3.00;;;;;;;37.47;25.46;98427.34;5063576;28;20070;-72
2023/06/14 11:30:27;;;;;;;2.58;2.10;;;;;;;35.51;27.01;98444.41;5045405;28;20033;-73